createdAt,value
2023-03-16T00:04:24.397Z,0.25
2023-03-16T00:09:31.377Z,2.00
2023-03-16T00:14:36.007Z,1.00
2023-03-16T00:19:38.733Z,1.00
2023-03-16T00:24:43.094Z,1.00
2023-03-16T00:29:49.156Z,1.00
2023-03-16T00:34:52.529Z,0.25
2023-03-16T00:39:56.674Z,2.00
2023-03-16T00:45:01.769Z,1.00
2023-03-16T00:50:05.014Z,0.25
2023-03-16T00:55:08.969Z,1.50
2023-03-16T01:00:16.703Z,0.75
2023-03-16T01:05:19.730Z,2.00
2023-03-16T01:10:22.593Z,1.75
2023-03-16T01:15:27.012Z,1.00
2023-03-16T01:20:30.587Z,1.00
2023-03-16T01:25:33.522Z,1.75
2023-03-16T01:30:37.674Z,2.75
2023-03-16T01:35:41.109Z,0.75
2023-03-16T01:40:44.446Z,0.50
2023-03-16T01:46:18.393Z,0.00
2023-03-16T01:51:28.323Z,2.50
2023-03-16T01:56:36.579Z,0.00
2023-03-16T02:01:40.901Z,0.00
2023-03-16T02:06:44.559Z,1.00
2023-03-16T02:11:48.733Z,1.00
2023-03-16T02:16:53.585Z,0.75
2023-03-16T02:22:03.495Z,2.00
2023-03-16T02:27:10.346Z,0.75
2023-03-16T02:32:18.362Z,1.00
2023-03-16T02:37:21.829Z,0.00
2023-03-16T02:42:27.285Z,0.00
2023-03-16T02:47:41.544Z,0.00
2023-03-16T02:52:44.507Z,1.00
2023-03-16T02:57:47.552Z,0.00
2023-03-16T03:02:53.501Z,0.75
2023-03-16T03:07:56.845Z,0.00
2023-03-16T03:13:00.204Z,2.25
2023-03-16T03:18:05.658Z,1.25
2023-03-16T03:23:08.947Z,0.25
2023-03-16T03:28:11.884Z,0.00
2023-03-16T03:33:16.621Z,1.75
2023-03-16T03:38:19.404Z,1.00
2023-03-16T03:43:22.625Z,0.00
2023-03-16T03:48:29.697Z,0.00
2023-03-16T03:53:33.677Z,0.50
2023-03-16T03:58:59.371Z,0.00
2023-03-16T04:04:29.856Z,0.75
2023-03-16T04:09:33.902Z,2.50
2023-03-16T04:14:37.700Z,0.50
2023-03-16T04:19:46.007Z,0.75
2023-03-16T04:24:52.232Z,0.25
2023-03-16T04:29:58.531Z,0.00
2023-03-16T04:35:03.150Z,1.00
2023-03-16T04:40:24.456Z,0.25
2023-03-16T04:45:36.156Z,0.75
2023-03-16T04:50:40.866Z,0.75
2023-03-16T04:55:45.698Z,1.00
2023-03-16T05:00:49.060Z,0.00
2023-03-16T05:06:02.011Z,0.25
2023-03-16T05:11:08.509Z,0.75
2023-03-16T05:16:17.812Z,0.00
2023-03-16T05:21:23.225Z,1.00
2023-03-16T05:26:34.054Z,0.25
2023-03-16T05:31:38.378Z,1.00
2023-03-16T05:36:48.536Z,1.00
2023-03-16T05:41:55.067Z,1.00
2023-03-16T05:47:15.591Z,1.00
2023-03-16T05:52:25.503Z,0.00
2023-03-16T05:57:30.111Z,0.00
2023-03-16T06:02:34.880Z,1.00
2023-03-16T06:07:39.269Z,0.75
2023-03-16T06:12:42.216Z,1.00
2023-03-16T06:17:45.268Z,0.00
2023-03-16T06:22:49.947Z,2.00
2023-03-16T06:27:53.158Z,1.00
2023-03-16T06:32:56.195Z,0.75
2023-03-16T06:38:01.279Z,1.00
2023-03-16T06:43:20.684Z,1.00
2023-03-16T06:48:23.608Z,0.25
2023-03-16T06:53:28.458Z,0.50
2023-03-16T06:58:32.774Z,0.25
2023-03-16T07:03:37.463Z,2.00
2023-03-16T07:08:56.345Z,0.00
2023-03-16T07:14:00.385Z,0.75
2023-03-16T07:19:04.448Z,1.25
2023-03-16T07:24:11.208Z,0.00
2023-03-16T07:29:15.880Z,0.50
2023-03-16T07:34:19.228Z,0.00
2023-03-16T07:39:28.660Z,1.00
2023-03-16T07:44:38.800Z,0.50
2023-03-16T07:49:42.425Z,7.50
2023-03-16T07:54:46.791Z,8.50
2023-03-16T07:59:49.927Z,7.00
2023-03-16T08:04:53.778Z,9.00
2023-03-16T08:09:58.083Z,8.00
2023-03-16T08:15:10.204Z,7.00
2023-03-16T08:20:15.456Z,6.50
2023-03-16T08:25:21.153Z,7.00
2023-03-16T08:30:33.291Z,33.00
2023-03-16T08:35:56.080Z,67.60
2023-03-16T08:41:00.641Z,105.60
2023-03-16T08:46:04.272Z,137.60
2023-03-16T08:51:18.856Z,178.40
2023-03-16T08:56:23.352Z,261.33
2023-03-16T09:01:26.575Z,286.67
2023-03-16T09:06:30.400Z,322.33
2023-03-16T09:11:34.507Z,316.00
2023-03-16T09:16:38.372Z,278.33
2023-03-16T09:21:41.248Z,267.67
2023-03-16T09:26:45.689Z,258.00
2023-03-16T09:31:48.981Z,244.80
2023-03-16T09:36:53.697Z,228.00
2023-03-16T09:42:05.759Z,220.00
2023-03-16T09:47:12.033Z,222.80
2023-03-16T09:52:28.053Z,204.20
2023-03-16T09:57:51.653Z,208.20
2023-03-16T10:03:54.970Z,191.60
2023-03-16T10:09:06.982Z,192.00
2023-03-16T10:14:20.449Z,187.20
2023-03-16T10:19:33.039Z,183.40
2023-03-16T10:24:46.524Z,183.00
2023-03-16T10:29:50.916Z,184.40
2023-03-16T10:34:59.600Z,115.20
2023-03-16T10:40:09.055Z,114.20
2023-03-16T10:45:28.626Z,130.80
2023-03-16T10:50:34.193Z,104.80
2023-03-16T10:55:43.600Z,104.20
2023-03-16T11:00:47.786Z,101.20
2023-03-16T11:05:59.164Z,103.80
2023-03-16T11:11:11.801Z,83.60
2023-03-16T11:16:29.217Z,96.20
2023-03-16T11:21:41.773Z,87.80
2023-03-16T11:26:48.841Z,86.80
2023-03-16T11:31:58.816Z,87.20
2023-03-16T11:37:12.998Z,79.80
2023-03-16T11:42:28.406Z,79.80
2023-03-16T11:47:55.083Z,76.80
2023-03-16T11:53:07.459Z,78.60
2023-03-16T11:58:29.117Z,74.60
2023-03-16T12:03:50.259Z,74.20
2023-03-16T12:09:25.194Z,74.60
2023-03-16T12:14:32.111Z,72.40
2023-03-16T12:19:44.685Z,75.60
2023-03-16T12:24:48.251Z,65.80
2023-03-16T12:30:03.803Z,69.80
2023-03-16T12:35:22.278Z,65.40
2023-03-16T12:40:34.868Z,71.00
2023-03-16T12:45:43.316Z,67.00
2023-03-16T12:50:52.586Z,64.00
2023-03-16T12:55:57.280Z,61.60
2023-03-16T13:01:01.003Z,60.40
2023-03-16T13:06:06.239Z,57.20
2023-03-16T13:11:11.293Z,61.40
2023-03-16T13:16:25.582Z,58.20
2023-03-16T13:21:40.930Z,58.00
2023-03-16T13:26:47.444Z,54.60
2023-03-16T13:31:51.483Z,53.00
2023-03-16T13:36:58.148Z,55.60
2023-03-16T13:42:04.626Z,50.80
2023-03-16T13:47:08.392Z,51.00
2023-03-16T13:52:21.465Z,51.60
2023-03-16T13:57:26.889Z,49.00
2023-03-16T14:02:29.811Z,47.40
2023-03-16T14:07:38.608Z,45.00
2023-03-16T14:12:51.836Z,49.60
2023-03-16T14:17:54.785Z,44.00
2023-03-16T14:23:01.513Z,48.20
2023-03-16T14:28:08.855Z,49.60
2023-03-16T14:33:28.385Z,51.60
2023-03-16T14:38:36.316Z,46.40
2023-03-16T14:43:46.131Z,47.40
2023-03-16T14:48:50.550Z,49.00
2023-03-16T14:53:54.869Z,47.00
2023-03-16T14:58:58.151Z,47.40
2023-03-16T15:04:02.257Z,42.40
2023-03-16T15:09:07.099Z,41.40
2023-03-16T15:14:37.677Z,45.60
2023-03-16T15:19:41.398Z,40.60
2023-03-16T15:24:46.492Z,46.00
2023-03-16T15:29:49.425Z,46.60
2023-03-16T15:34:53.321Z,44.80
2023-03-16T15:39:57.637Z,40.80
2023-03-16T15:45:00.662Z,38.60
2023-03-16T15:50:03.598Z,42.80
2023-03-16T15:55:15.300Z,44.40
2023-03-16T16:00:28.893Z,38.60
2023-03-16T16:05:33.041Z,40.60
2023-03-16T16:10:37.318Z,40.60
2023-03-16T16:15:41.438Z,42.00
2023-03-16T16:20:44.334Z,27.60
2023-03-16T16:25:49.654Z,36.80
2023-03-16T16:30:52.595Z,39.80
2023-03-16T16:35:57.940Z,34.80
2023-03-16T16:41:07.569Z,38.40
2023-03-16T16:46:16.445Z,35.20
2023-03-16T16:51:21.558Z,35.80
2023-03-16T16:56:28.751Z,35.00
2023-03-16T17:01:34.960Z,32.60
2023-03-16T17:06:37.778Z,32.00
2023-03-16T17:11:43.478Z,32.20
2023-03-16T17:16:48.318Z,34.80
2023-03-16T17:21:52.132Z,33.20
2023-03-16T17:26:58.749Z,31.20
2023-03-16T17:32:03.782Z,32.25
2023-03-16T17:37:08.470Z,30.40
2023-03-16T17:42:15.885Z,28.75
2023-03-16T17:47:23.024Z,32.80
2023-03-16T17:52:28.423Z,29.50
2023-03-16T17:57:34.541Z,30.00
2023-03-16T18:02:41.521Z,31.75
2023-03-16T18:07:44.327Z,28.25
2023-03-16T18:12:55.135Z,25.50
2023-03-16T18:17:59.465Z,26.75
2023-03-16T18:23:03.614Z,26.00
2023-03-16T18:28:09.782Z,23.50
2023-03-16T18:33:24.829Z,26.50
2023-03-16T18:38:31.425Z,21.75
2023-03-16T18:43:36.048Z,25.00
2023-03-16T18:48:38.872Z,20.50
2023-03-16T18:53:42.017Z,19.75
2023-03-16T18:58:47.005Z,17.75
2023-03-16T19:03:50.055Z,23.50
2023-03-16T19:08:53.451Z,17.25
2023-03-16T19:13:57.681Z,22.75
2023-03-16T19:19:00.674Z,20.75
2023-03-16T19:24:05.961Z,18.50
2023-03-16T19:29:14.241Z,22.00
2023-03-16T19:34:18.727Z,18.25
2023-03-16T19:39:21.691Z,18.00
2023-03-16T19:44:27.968Z,20.75
2023-03-16T19:49:31.849Z,15.00
2023-03-16T19:54:35.081Z,14.25
2023-03-16T19:59:39.435Z,18.00
2023-03-16T20:04:42.270Z,15.25
2023-03-16T20:09:45.973Z,14.00
2023-03-16T20:14:51.235Z,17.25
2023-03-16T20:19:54.062Z,21.00
2023-03-16T20:24:57.965Z,19.25
2023-03-16T20:30:02.851Z,16.50
2023-03-16T20:35:14.630Z,16.25
2023-03-16T20:40:17.921Z,17.00
2023-03-16T20:45:25.725Z,16.75
2023-03-16T20:50:30.638Z,15.00
2023-03-16T20:55:34.001Z,17.00
2023-03-16T21:00:40.383Z,14.75
2023-03-16T21:05:43.458Z,14.25
2023-03-16T21:10:48.529Z,13.00
2023-03-16T21:15:55.782Z,14.25
2023-03-16T21:20:58.833Z,12.50
2023-03-16T21:26:03.760Z,13.00
2023-03-16T21:31:08.376Z,12.75
2023-03-16T21:36:16.052Z,13.75
2023-03-16T21:41:19.097Z,10.00
2023-03-16T21:46:25.484Z,15.00
2023-03-16T21:51:31.174Z,11.75
2023-03-16T21:56:34.013Z,11.50
2023-03-16T22:01:50.932Z,13.50
2023-03-16T22:07:01.340Z,11.75
2023-03-16T22:12:04.455Z,14.00
2023-03-16T22:17:16.672Z,17.00
2023-03-16T22:22:19.527Z,10.75
2023-03-16T22:27:26.027Z,11.25
2023-03-16T22:32:30.209Z,9.50
2023-03-16T22:37:33.052Z,8.00
2023-03-16T22:42:38.523Z,8.75
2023-03-16T22:47:42.866Z,9.75
2023-03-16T22:52:48.873Z,12.75
2023-03-16T22:58:02.389Z,12.25
2023-03-16T23:03:15.180Z,9.25
2023-03-16T23:08:21.034Z,11.00
2023-03-16T23:13:27.033Z,8.75
2023-03-16T23:18:31.244Z,9.50
2023-03-16T23:23:34.035Z,9.75
2023-03-16T23:28:36.804Z,9.25
2023-03-16T23:33:42.086Z,9.50
2023-03-16T23:38:45.308Z,8.25
2023-03-16T23:43:49.570Z,10.25
2023-03-16T23:48:56.429Z,9.50
2023-03-16T23:53:59.817Z,11.00
2023-03-16T23:59:02.588Z,7.25
